createdAt,value
2023-03-10T00:00:41.048Z,94096.47
2023-03-10T00:03:09.047Z,94034.16
2023-03-10T00:05:39.298Z,93992.53
2023-03-10T00:08:07.737Z,93985.94
2023-03-10T00:10:35.546Z,94007.53
2023-03-10T00:13:03.341Z,94030.13
2023-03-10T00:15:31.691Z,94089.38
2023-03-10T00:17:59.690Z,94109.38
2023-03-10T00:20:27.578Z,94132.31
2023-03-10T00:22:56.720Z,94112.59
2023-03-10T00:25:24.538Z,94134.91
2023-03-10T00:27:52.757Z,94121.34
2023-03-10T00:30:20.781Z,94109.72
2023-03-10T00:32:50.257Z,94059.34
2023-03-10T00:35:18.329Z,93989.00
2023-03-10T00:37:46.117Z,93979.31
2023-03-10T00:40:16.386Z,93948.97
2023-03-10T00:42:44.808Z,93907.38
2023-03-10T00:45:12.735Z,93839.03
2023-03-10T00:47:40.766Z,93801.97
2023-03-10T00:50:09.923Z,93808.09
2023-03-10T00:52:37.804Z,93873.06
2023-03-10T00:55:06.249Z,93928.66
2023-03-10T00:57:36.891Z,93986.56
2023-03-10T01:00:06.445Z,94027.38
2023-03-10T01:02:34.179Z,94099.38
2023-03-10T01:05:02.008Z,94143.78
2023-03-10T01:07:29.738Z,94184.97
2023-03-10T01:09:57.627Z,94191.44
2023-03-10T01:12:25.417Z,94191.59
2023-03-10T01:14:54.638Z,94178.16
2023-03-10T01:17:22.384Z,94191.75
2023-03-10T01:19:50.246Z,94176.25
2023-03-10T01:22:18.125Z,94186.59
2023-03-10T01:24:45.884Z,94178.97
2023-03-10T01:27:13.774Z,94179.81
2023-03-10T01:29:41.581Z,94181.41
2023-03-10T01:32:10.880Z,94169.13
2023-03-10T01:34:39.415Z,94152.97
2023-03-10T01:37:07.253Z,94138.13
2023-03-10T01:39:35.125Z,94096.16
2023-03-10T01:42:03.018Z,94049.31
2023-03-10T01:44:30.772Z,94011.56
2023-03-10T01:46:59.619Z,93994.31
2023-03-10T01:49:34.683Z,93975.78
2023-03-10T01:52:06.233Z,93958.00
2023-03-10T01:54:42.210Z,93951.56
2023-03-10T01:57:10.709Z,93946.56
2023-03-10T01:59:38.594Z,93938.19
2023-03-10T02:02:06.620Z,93920.78
2023-03-10T02:04:42.663Z,93922.41
2023-03-10T02:07:11.777Z,93965.75
2023-03-10T02:09:43.474Z,93980.59
2023-03-10T02:12:12.252Z,94021.75
2023-03-10T02:14:40.877Z,94054.50
2023-03-10T02:17:11.295Z,94062.06
2023-03-10T02:20:00.380Z,94078.69
2023-03-10T02:22:28.480Z,94104.88
2023-03-10T02:25:02.609Z,94128.75
2023-03-10T02:27:35.285Z,94152.50
2023-03-10T02:30:07.037Z,94184.81
2023-03-10T02:32:38.468Z,94176.41
2023-03-10T02:35:06.993Z,94209.03
2023-03-10T02:37:36.507Z,94227.59
2023-03-10T02:40:06.020Z,94228.41
2023-03-10T02:42:37.509Z,94243.75
2023-03-10T02:45:05.870Z,94232.44
2023-03-10T02:47:33.652Z,94234.22
2023-03-10T02:50:02.538Z,94243.44
2023-03-10T02:52:37.579Z,94250.19
2023-03-10T02:55:06.060Z,94255.38
2023-03-10T02:57:35.181Z,94265.38
2023-03-10T03:00:05.288Z,94268.59
2023-03-10T03:02:33.689Z,94260.84
2023-03-10T03:05:01.740Z,94270.38
2023-03-10T03:07:29.672Z,94277.00
2023-03-10T03:09:57.739Z,94291.25
2023-03-10T03:12:25.625Z,94294.78
2023-03-10T03:14:55.107Z,94300.63
2023-03-10T03:17:22.910Z,94292.88
2023-03-10T03:19:50.656Z,94296.09
2023-03-10T03:22:18.434Z,94317.59
2023-03-10T03:24:46.345Z,94309.84
2023-03-10T03:27:14.333Z,94294.66
2023-03-10T03:29:42.120Z,94299.03
2023-03-10T03:32:11.522Z,94300.31
2023-03-10T03:34:39.494Z,94316.63
2023-03-10T03:37:07.273Z,94302.25
2023-03-10T03:39:35.204Z,94325.84
2023-03-10T03:42:03.082Z,94327.47
2023-03-10T03:44:30.987Z,94339.09
2023-03-10T03:46:58.748Z,94353.50
2023-03-10T03:49:28.848Z,94359.47
2023-03-10T03:51:56.615Z,94370.13
2023-03-10T03:54:24.492Z,94387.44
2023-03-10T03:56:52.301Z,94404.44
2023-03-10T03:59:20.339Z,94424.81
2023-03-10T04:01:48.323Z,94427.56
2023-03-10T04:04:16.199Z,94432.91
2023-03-10T04:06:45.389Z,94433.22
2023-03-10T04:09:13.759Z,94444.88
2023-03-10T04:11:41.559Z,94440.03
2023-03-10T04:14:09.542Z,94426.44
2023-03-10T04:16:37.363Z,94441.47
2023-03-10T04:19:07.528Z,94447.31
2023-03-10T04:21:35.865Z,94454.91
2023-03-10T04:24:06.057Z,94453.13
2023-03-10T04:26:34.430Z,94440.66
2023-03-10T04:29:02.425Z,94434.19
2023-03-10T04:31:30.700Z,94414.78
2023-03-10T04:33:58.657Z,94399.56
2023-03-10T04:36:26.390Z,94371.75
2023-03-10T04:38:54.335Z,94363.03
2023-03-10T04:41:23.565Z,94368.53
2023-03-10T04:43:51.902Z,94373.53
2023-03-10T04:46:19.844Z,94358.81
2023-03-10T04:48:47.826Z,94360.91
2023-03-10T04:51:15.573Z,94372.06
2023-03-10T04:53:43.363Z,94384.53
2023-03-10T04:56:12.512Z,94378.53
2023-03-10T04:58:41.816Z,94377.72
2023-03-10T05:01:10.804Z,94372.72
2023-03-10T05:03:38.734Z,94390.34
2023-03-10T05:06:12.428Z,94407.19
2023-03-10T05:08:40.307Z,94417.38
2023-03-10T05:11:09.131Z,94410.59
2023-03-10T05:13:36.951Z,94402.81
2023-03-10T05:16:13.776Z,94383.72
2023-03-10T05:18:42.903Z,94404.75
2023-03-10T05:21:10.900Z,94396.03
2023-03-10T05:23:39.079Z,94392.28
2023-03-10T05:26:07.910Z,94390.50
2023-03-10T05:28:36.041Z,94395.34
2023-03-10T05:31:09.657Z,94408.00
2023-03-10T05:33:37.422Z,94419.00
2023-03-10T05:36:07.779Z,94424.81
2023-03-10T05:38:36.561Z,94412.84
2023-03-10T05:41:08.160Z,94417.06
2023-03-10T05:43:36.422Z,94419.66
2023-03-10T05:46:06.097Z,94430.47
2023-03-10T05:48:33.969Z,94450.69
2023-03-10T05:51:03.068Z,94473.50
2023-03-10T05:53:32.465Z,94496.00
2023-03-10T05:56:00.714Z,94507.00
2023-03-10T05:58:28.722Z,94510.25
2023-03-10T06:00:56.467Z,94510.25
2023-03-10T06:03:25.782Z,94518.69
2023-03-10T06:05:53.757Z,94507.00
2023-03-10T06:08:21.538Z,94508.66
2023-03-10T06:10:49.358Z,94511.88
2023-03-10T06:13:20.103Z,94523.84
2023-03-10T06:15:50.947Z,94517.88
2023-03-10T06:18:19.391Z,94530.31
2023-03-10T06:20:49.496Z,94561.72
2023-03-10T06:23:18.168Z,94617.78
2023-03-10T06:25:46.092Z,94673.16
2023-03-10T06:28:13.914Z,94731.03
2023-03-10T06:30:41.717Z,94802.50
2023-03-10T06:33:09.578Z,94866.41
2023-03-10T06:35:37.318Z,94938.78
2023-03-10T06:38:06.410Z,95017.97
2023-03-10T06:40:34.502Z,95055.69
2023-03-10T06:43:02.253Z,95101.47
2023-03-10T06:45:30.159Z,95120.94
2023-03-10T06:47:58.285Z,95178.81
2023-03-10T06:50:26.107Z,95167.78
2023-03-10T06:52:53.881Z,95243.00
2023-03-10T06:55:23.061Z,95283.38
2023-03-10T06:57:50.875Z,95338.16
2023-03-10T07:00:19.878Z,95301.09
2023-03-10T07:02:47.654Z,95321.25
2023-03-10T07:05:15.682Z,95354.28
2023-03-10T07:07:43.584Z,95320.75
2023-03-10T07:10:12.640Z,95316.38
2023-03-10T07:12:41.807Z,95257.16
2023-03-10T07:15:10.796Z,95232.13
2023-03-10T07:17:38.774Z,95206.78
2023-03-10T07:20:07.972Z,95194.09
2023-03-10T07:22:35.909Z,95223.97
2023-03-10T07:25:05.033Z,95284.50
2023-03-10T07:27:32.843Z,95295.22
2023-03-10T07:30:02.077Z,95363.53
2023-03-10T07:32:29.997Z,95390.28
2023-03-10T07:34:57.963Z,95398.22
2023-03-10T07:37:25.882Z,95394.97
2023-03-10T07:39:55.021Z,95401.28
2023-03-10T07:42:22.904Z,95403.56
2023-03-10T07:44:50.743Z,95434.50
2023-03-10T07:47:20.240Z,95424.41
2023-03-10T07:49:48.248Z,95468.34
2023-03-10T07:52:16.351Z,95605.63
2023-03-10T07:54:45.228Z,95712.50
2023-03-10T07:57:13.803Z,95830.25
2023-03-10T07:59:42.271Z,95891.13
2023-03-10T08:02:13.102Z,95946.97
2023-03-10T08:04:43.114Z,95983.22
2023-03-10T08:07:10.983Z,96129.00
2023-03-10T08:09:39.052Z,96333.63
2023-03-10T08:12:08.108Z,96637.19
2023-03-10T08:14:36.505Z,96874.50
2023-03-10T08:17:04.410Z,97143.91
2023-03-10T08:19:32.339Z,97383.75
2023-03-10T08:22:03.602Z,97463.34
2023-03-10T08:24:31.556Z,97709.72
2023-03-10T08:26:59.429Z,97951.63
2023-03-10T08:29:27.221Z,98144.50
2023-03-10T08:31:55.025Z,98736.22
2023-03-10T08:34:23.346Z,99317.41
2023-03-10T08:36:51.388Z,99702.59
2023-03-10T08:39:20.634Z,99588.28
2023-03-10T08:41:49.791Z,99590.06
2023-03-10T08:44:19.329Z,99191.44
2023-03-10T08:46:49.151Z,99013.56
2023-03-10T08:49:18.695Z,98661.81
2023-03-10T08:51:46.774Z,98588.63
2023-03-10T08:54:17.331Z,98415.72
2023-03-10T08:56:46.459Z,98280.03
2023-03-10T08:59:14.292Z,98067.88
2023-03-10T09:01:42.142Z,97916.94
2023-03-10T09:04:11.382Z,97830.41
2023-03-10T09:06:39.486Z,97761.72
2023-03-10T09:09:10.082Z,97937.47
2023-03-10T09:11:40.511Z,98120.03
2023-03-10T09:14:11.186Z,98109.44
2023-03-10T09:16:40.333Z,97957.53
2023-03-10T09:19:08.486Z,97867.09
2023-03-10T09:21:36.290Z,97976.94
2023-03-10T09:24:04.881Z,98121.97
2023-03-10T09:26:34.345Z,98261.13
2023-03-10T09:29:02.596Z,98630.94
2023-03-10T09:31:34.350Z,99087.03
2023-03-10T09:34:03.232Z,99601.63
2023-03-10T09:36:32.560Z,99428.66
2023-03-10T09:39:01.340Z,99554.19
2023-03-10T09:42:01.795Z,100271.00
2023-03-10T09:44:40.079Z,100789.31
2023-03-10T09:47:24.012Z,100817.19
2023-03-10T09:50:03.993Z,100294.56
2023-03-10T09:52:44.079Z,99816.66
2023-03-10T09:55:21.000Z,99549.97
2023-03-10T09:57:51.650Z,99600.41
2023-03-10T10:00:23.886Z,99016.69
2023-03-10T10:03:01.178Z,98619.19
2023-03-10T10:05:33.666Z,98774.22
2023-03-10T10:08:07.080Z,98792.38
2023-03-10T10:10:38.427Z,98869.00
2023-03-10T10:13:13.646Z,98863.72
2023-03-10T10:15:45.502Z,98655.38
2023-03-10T10:18:24.990Z,98342.91
2023-03-10T10:20:59.135Z,98218.50
2023-03-10T10:23:33.954Z,98280.38
2023-03-10T10:26:09.805Z,98145.50
2023-03-10T10:28:43.295Z,98387.75
2023-03-10T10:31:13.973Z,98364.41
2023-03-10T10:33:58.193Z,98314.84
2023-03-10T10:36:28.805Z,98568.19
2023-03-10T10:38:59.074Z,99129.66
2023-03-10T10:41:30.439Z,99102.16
2023-03-10T10:44:01.782Z,98802.66
2023-03-10T10:46:32.882Z,98650.09
2023-03-10T10:49:09.198Z,98588.19
2023-03-10T10:51:38.960Z,98441.22
2023-03-10T10:54:24.115Z,98289.38
2023-03-10T10:56:57.077Z,98240.00
2023-03-10T10:59:30.011Z,98120.56
2023-03-10T11:01:59.765Z,98214.91
2023-03-10T11:04:31.248Z,98443.16
2023-03-10T11:07:13.803Z,98647.59
2023-03-10T11:09:41.689Z,98768.97
2023-03-10T11:12:20.158Z,99327.50
2023-03-10T11:15:01.699Z,99691.97
2023-03-10T11:17:34.339Z,99889.00
2023-03-10T11:20:14.983Z,99718.97
2023-03-10T11:22:47.118Z,99259.19
2023-03-10T11:25:33.296Z,98984.88
2023-03-10T11:28:13.709Z,99288.50
2023-03-10T11:30:47.969Z,99296.44
2023-03-10T11:33:26.156Z,99311.13
2023-03-10T11:36:01.019Z,100118.94
2023-03-10T11:38:38.456Z,100174.88
2023-03-10T11:41:12.491Z,100464.28
2023-03-10T11:43:50.885Z,100527.03
2023-03-10T11:46:24.878Z,100938.72
2023-03-10T11:49:00.616Z,101721.59
2023-03-10T11:51:38.853Z,101891.94
2023-03-10T11:54:16.092Z,100887.28
2023-03-10T11:56:44.262Z,100166.41
2023-03-10T11:59:18.037Z,99650.63
2023-03-10T12:01:51.703Z,99214.69
2023-03-10T12:04:25.063Z,98709.03
2023-03-10T12:07:00.083Z,98504.03
2023-03-10T12:09:42.313Z,98369.81
2023-03-10T12:12:15.858Z,98156.59
2023-03-10T12:14:44.877Z,98061.44
2023-03-10T12:17:14.282Z,98144.66
2023-03-10T12:20:12.127Z,98101.69
2023-03-10T12:22:42.538Z,98006.69
2023-03-10T12:25:43.977Z,97789.66
2023-03-10T12:28:24.550Z,97507.22
2023-03-10T12:30:56.517Z,97433.72
2023-03-10T12:33:48.819Z,97284.19
2023-03-10T12:36:24.579Z,97285.84
2023-03-10T12:38:57.828Z,97238.78
2023-03-10T12:41:44.477Z,97346.44
2023-03-10T12:44:45.565Z,97374.47
2023-03-10T12:47:22.778Z,97531.72
2023-03-10T12:49:56.266Z,97830.63
2023-03-10T12:52:32.545Z,97938.41
2023-03-10T12:55:17.758Z,98491.31
2023-03-10T12:57:55.089Z,99082.09
2023-03-10T13:00:31.956Z,99208.13
2023-03-10T13:03:05.724Z,98990.75
2023-03-10T13:05:35.621Z,98734.31
2023-03-10T13:08:13.220Z,98457.38
2023-03-10T13:10:43.365Z,98300.84
2023-03-10T13:13:17.865Z,98188.13
2023-03-10T13:15:58.510Z,98152.19
2023-03-10T13:18:26.322Z,98188.13
2023-03-10T13:20:54.177Z,98037.91
2023-03-10T13:23:24.184Z,97869.97
2023-03-10T13:25:55.070Z,97799.63
2023-03-10T13:28:23.051Z,97788.56
2023-03-10T13:30:50.855Z,97846.88
2023-03-10T13:33:25.321Z,97827.88
2023-03-10T13:35:53.655Z,97773.91
2023-03-10T13:38:24.708Z,97636.94
2023-03-10T13:41:02.369Z,97599.28
2023-03-10T13:43:38.296Z,97504.50
2023-03-10T13:46:09.745Z,97436.63
2023-03-10T13:48:38.529Z,97432.50
2023-03-10T13:51:08.641Z,97379.56
2023-03-10T13:53:36.555Z,97337.63
2023-03-10T13:56:18.796Z,97317.19
2023-03-10T13:58:48.529Z,97270.25
2023-03-10T14:01:23.315Z,97237.81
2023-03-10T14:03:53.947Z,97166.13
2023-03-10T14:06:22.924Z,97071.13
2023-03-10T14:08:51.490Z,97080.63
2023-03-10T14:11:31.208Z,97085.72
2023-03-10T14:14:00.302Z,97101.97
2023-03-10T14:16:54.357Z,97102.66
2023-03-10T14:19:51.301Z,97149.69
2023-03-10T14:22:30.938Z,97140.31
2023-03-10T14:25:01.109Z,97223.06
2023-03-10T14:27:34.981Z,97292.22
2023-03-10T14:30:12.074Z,97378.50
2023-03-10T14:32:40.577Z,97446.84
2023-03-10T14:35:12.725Z,97530.47
2023-03-10T14:37:40.597Z,97773.63
2023-03-10T14:40:10.820Z,97972.78
2023-03-10T14:42:41.564Z,98113.09
2023-03-10T14:45:22.144Z,98710.59
2023-03-10T14:47:50.377Z,99417.00
2023-03-10T14:50:20.120Z,99872.13
2023-03-10T14:52:48.052Z,100173.25
2023-03-10T14:55:16.557Z,100479.47
2023-03-10T14:57:48.273Z,100599.72
2023-03-10T15:00:19.350Z,101014.06
2023-03-10T15:02:47.823Z,100920.63
2023-03-10T15:05:17.027Z,100583.34
2023-03-10T15:07:45.443Z,100339.03
2023-03-10T15:10:13.910Z,100205.59
2023-03-10T15:12:42.475Z,99407.09
2023-03-10T15:15:16.684Z,98857.84
2023-03-10T15:17:44.971Z,98305.97
2023-03-10T15:20:17.528Z,97972.09
2023-03-10T15:22:47.050Z,97746.75
2023-03-10T15:25:17.657Z,97588.38
2023-03-10T15:27:48.394Z,97452.50
2023-03-10T15:30:21.335Z,97309.75
2023-03-10T15:32:49.235Z,97213.00
2023-03-10T15:35:17.968Z,97173.69
2023-03-10T15:37:46.056Z,97130.38
2023-03-10T15:40:17.650Z,97048.34
2023-03-10T15:42:46.160Z,96948.78
2023-03-10T15:45:14.941Z,96847.44
2023-03-10T15:47:44.236Z,96716.94
2023-03-10T15:50:13.608Z,96574.13
2023-03-10T15:52:46.859Z,96473.00
2023-03-10T15:55:16.302Z,96332.84
2023-03-10T15:57:44.402Z,96236.28
2023-03-10T16:00:13.679Z,96170.72
2023-03-10T16:02:41.502Z,96118.91
2023-03-10T16:05:11.687Z,96090.16
2023-03-10T16:07:39.704Z,95994.56
2023-03-10T16:10:09.976Z,95876.97
2023-03-10T16:12:37.772Z,95780.25
2023-03-10T16:15:06.138Z,95719.22
2023-03-10T16:17:33.981Z,95689.88
2023-03-10T16:20:06.570Z,95662.66
2023-03-10T16:22:40.357Z,95617.31
2023-03-10T16:25:10.169Z,95534.41
2023-03-10T16:27:37.985Z,95445.00
2023-03-10T16:30:06.831Z,95377.81
2023-03-10T16:32:34.867Z,95322.50
2023-03-10T16:35:02.853Z,95256.47
2023-03-10T16:37:30.928Z,95242.16
2023-03-10T16:40:00.162Z,95195.03
2023-03-10T16:42:28.066Z,95130.31
2023-03-10T16:44:57.111Z,95113.44
2023-03-10T16:47:25.131Z,95187.53
2023-03-10T16:49:53.097Z,95127.41
2023-03-10T16:52:20.942Z,95130.31
2023-03-10T16:54:48.873Z,95106.31
2023-03-10T16:57:18.114Z,95091.38
2023-03-10T16:59:46.575Z,95047.81
2023-03-10T17:02:16.557Z,95039.06
2023-03-10T17:04:45.307Z,95028.19
2023-03-10T17:07:14.216Z,95007.22
2023-03-10T17:09:42.085Z,94963.38
2023-03-10T17:12:10.224Z,94922.34
2023-03-10T17:14:39.374Z,94906.28
2023-03-10T17:17:08.049Z,94942.44
2023-03-10T17:19:37.638Z,94938.41
2023-03-10T17:22:05.465Z,94911.31
2023-03-10T17:24:33.261Z,94892.50
2023-03-10T17:27:01.122Z,94898.50
2023-03-10T17:29:28.910Z,94919.59
2023-03-10T17:31:58.068Z,94910.50
2023-03-10T17:34:27.163Z,94889.41
2023-03-10T17:36:55.003Z,94877.41
2023-03-10T17:39:23.997Z,94881.63
2023-03-10T17:41:51.731Z,94893.31
2023-03-10T17:44:19.650Z,94924.63
2023-03-10T17:46:47.847Z,94926.09
2023-03-10T17:49:18.073Z,94946.66
2023-03-10T17:51:47.290Z,94934.50
2023-03-10T17:54:17.049Z,94933.84
2023-03-10T17:56:44.924Z,94919.28
2023-03-10T17:59:14.341Z,94926.41
2023-03-10T18:01:44.739Z,94939.69
2023-03-10T18:04:13.840Z,94943.75
2023-03-10T18:06:43.510Z,94939.84
2023-03-10T18:09:14.309Z,94970.72
2023-03-10T18:11:42.726Z,94973.16
2023-03-10T18:14:10.918Z,94979.16
2023-03-10T18:16:40.523Z,94985.97
2023-03-10T18:19:10.892Z,94971.53
2023-03-10T18:21:39.448Z,94966.63
2023-03-10T18:24:09.247Z,94953.00
2023-03-10T18:26:38.081Z,94952.03
2023-03-10T18:29:06.221Z,94958.19
2023-03-10T18:31:35.487Z,94957.22
2023-03-10T18:34:04.286Z,94949.75
2023-03-10T18:36:33.071Z,94931.09
2023-03-10T18:39:02.423Z,94914.56
2023-03-10T18:41:32.738Z,94899.97
2023-03-10T18:44:01.321Z,94894.94
2023-03-10T18:46:29.422Z,94913.59
2023-03-10T18:48:57.252Z,94907.91
2023-03-10T18:51:25.905Z,94883.25
2023-03-10T18:53:54.293Z,94876.44
2023-03-10T18:56:23.797Z,94863.00
2023-03-10T18:58:53.065Z,94812.50
2023-03-10T19:01:21.078Z,94830.19
2023-03-10T19:03:48.964Z,94836.53
2023-03-10T19:06:16.951Z,94859.44
2023-03-10T19:08:44.785Z,94888.13
2023-03-10T19:11:13.013Z,94899.31
2023-03-10T19:13:44.106Z,94915.38
2023-03-10T19:16:13.740Z,94932.88
2023-03-10T19:18:41.615Z,94930.13
2023-03-10T19:21:10.037Z,94935.16
2023-03-10T19:23:37.937Z,94947.00
2023-03-10T19:26:05.995Z,94932.72
2023-03-10T19:28:34.073Z,94929.31
2023-03-10T19:31:01.938Z,94914.09
2023-03-10T19:33:31.128Z,94899.81
2023-03-10T19:36:03.011Z,94885.53
2023-03-10T19:38:30.954Z,94898.34
2023-03-10T19:40:58.872Z,94898.84
2023-03-10T19:43:26.762Z,94858.63
2023-03-10T19:46:00.928Z,94830.38
2023-03-10T19:48:28.892Z,94816.75
2023-03-10T19:50:59.813Z,94778.97
2023-03-10T19:53:29.861Z,94771.03
2023-03-10T19:56:00.308Z,94759.03
2023-03-10T19:58:28.489Z,94740.91
2023-03-10T20:00:58.240Z,94721.75
2023-03-10T20:03:27.529Z,94709.75
2023-03-10T20:05:56.062Z,94696.63
2023-03-10T20:08:26.228Z,94666.34
2023-03-10T20:10:55.498Z,94648.53
2023-03-10T20:13:23.457Z,94609.94
2023-03-10T20:15:51.223Z,94608.34
2023-03-10T20:18:21.182Z,94594.09
2023-03-10T20:20:49.046Z,94569.66
2023-03-10T20:23:17.336Z,94547.16
2023-03-10T20:25:46.769Z,94504.41
2023-03-10T20:28:15.390Z,94474.31
2023-03-10T20:30:43.234Z,94447.47
2023-03-10T20:33:11.290Z,94396.81
2023-03-10T20:35:39.114Z,94333.28
2023-03-10T20:38:07.054Z,94286.88
2023-03-10T20:40:36.676Z,94241.66
2023-03-10T20:43:08.395Z,94204.97
2023-03-10T20:45:36.343Z,94155.56
2023-03-10T20:48:07.687Z,94107.63
2023-03-10T20:50:36.018Z,94081.78
2023-03-10T20:53:04.440Z,94045.78
2023-03-10T20:55:33.116Z,93994.81
2023-03-10T20:58:01.866Z,93952.22
2023-03-10T21:00:31.471Z,93919.66
2023-03-10T21:03:00.832Z,93866.13
2023-03-10T21:05:28.965Z,93820.53
2023-03-10T21:07:58.064Z,93788.59
2023-03-10T21:10:26.684Z,93755.91
2023-03-10T21:12:54.474Z,93749.13
2023-03-10T21:15:23.767Z,93737.72
2023-03-10T21:17:53.050Z,93692.81
2023-03-10T21:20:23.638Z,93675.69
2023-03-10T21:22:52.077Z,93661.69
2023-03-10T21:25:22.109Z,93648.34
2023-03-10T21:27:52.669Z,93598.94
2023-03-10T21:30:21.517Z,93537.66
2023-03-10T21:32:49.347Z,93495.84
2023-03-10T21:35:18.792Z,93447.44
2023-03-10T21:37:48.448Z,93403.41
2023-03-10T21:40:19.734Z,93354.88
2023-03-10T21:42:47.897Z,93315.84
2023-03-10T21:45:18.814Z,93266.75
2023-03-10T21:47:46.735Z,93250.97
2023-03-10T21:50:15.558Z,93249.19
2023-03-10T21:52:45.885Z,93224.31
2023-03-10T21:55:18.439Z,93213.59
2023-03-10T21:57:46.497Z,93235.88
2023-03-10T22:00:15.180Z,93266.72
2023-03-10T22:02:43.310Z,93265.75
2023-03-10T22:05:14.615Z,93254.53
2023-03-10T22:07:42.468Z,93236.50
2023-03-10T22:10:13.596Z,93194.16
2023-03-10T22:12:41.803Z,93153.53
2023-03-10T22:15:15.160Z,93114.22
2023-03-10T22:17:43.184Z,93077.50
2023-03-10T22:20:14.984Z,93039.50
2023-03-10T22:22:42.712Z,93009.69
2023-03-10T22:25:12.238Z,92978.75
2023-03-10T22:27:40.141Z,92973.16
2023-03-10T22:30:09.194Z,92946.22
2023-03-10T22:32:37.172Z,92935.47
2023-03-10T22:35:05.398Z,92934.66
2023-03-10T22:37:33.241Z,92969.59
2023-03-10T22:40:01.162Z,92997.97
2023-03-10T22:42:30.292Z,92980.34
2023-03-10T22:44:58.281Z,92977.94
2023-03-10T22:47:26.172Z,92977.94
2023-03-10T22:49:54.028Z,92971.22
2023-03-10T22:52:21.866Z,92980.16
2023-03-10T22:54:49.659Z,92996.03
2023-03-10T22:57:17.463Z,92995.41
2023-03-10T22:59:46.639Z,92928.72
2023-03-10T23:02:14.427Z,92928.72
2023-03-10T23:04:42.988Z,92940.63
2023-03-10T23:07:10.883Z,92917.97
2023-03-10T23:09:38.694Z,92886.59
2023-03-10T23:12:06.866Z,92849.31
2023-03-10T23:14:34.648Z,92802.88
2023-03-10T23:17:04.103Z,92735.47
2023-03-10T23:19:33.730Z,92688.28
2023-03-10T23:22:01.612Z,92625.13
2023-03-10T23:24:29.368Z,92582.09
2023-03-10T23:26:57.166Z,92555.13
2023-03-10T23:29:24.982Z,92530.63
2023-03-10T23:31:52.802Z,92560.53
2023-03-10T23:34:22.051Z,92538.16
2023-03-10T23:36:50.033Z,92544.69
2023-03-10T23:39:17.892Z,92511.59
2023-03-10T23:41:45.677Z,92435.25
2023-03-10T23:44:13.600Z,92380.97
2023-03-10T23:46:41.485Z,92366.56
2023-03-10T23:49:09.278Z,92433.66
2023-03-10T23:51:38.474Z,92488.63
2023-03-10T23:54:06.542Z,92530.63
2023-03-10T23:56:34.394Z,92542.47
2023-03-10T23:59:02.163Z,92543.28
